Time;durP1;ratioP1;P1;durP2;ratioP2;P2;SDS_P1;SDS_P2;PMS_P1;PMS_P2;Temp;Humidity;BMP_temperature;BMP_pressure;BME280_temperature;BME280_humidity;BME280_pressure;Samples;Min_cycle;Max_cycle;Signal;HPM_P1;HPM_P2
2024/02/21 00:01:51;;;;;;;9.50;7.10;;;;;;;-0.20;100.00;101935.89;105913;1251;60553;-76
2024/02/21 00:04:17;;;;;;;9.90;6.90;;;;;;;-0.18;100.00;101934.00;105870;1251;73843;-76
2024/02/21 00:06:45;;;;;;;7.90;5.60;;;;;;;-0.16;100.00;101931.95;106090;1255;63853;-75
2024/02/21 00:09:12;;;;;;;10.70;7.30;;;;;;;-0.15;100.00;101931.29;106004;1255;71025;-76
2024/02/21 00:11:39;;;;;;;8.10;6.50;;;;;;;-0.15;100.00;101927.14;105819;1256;61103;-77
2024/02/21 00:14:07;;;;;;;7.90;5.00;;;;;;;-0.14;100.00;101923.02;105883;1251;60549;-76
2024/02/21 00:16:33;;;;;;;8.40;4.90;;;;;;;-0.14;100.00;101919.77;105821;1252;73765;-76
2024/02/21 00:19:00;;;;;;;7.00;5.50;;;;;;;-0.16;100.00;101918.71;105839;1256;62891;-76
2024/02/21 00:21:28;;;;;;;7.30;4.60;;;;;;;-0.18;100.00;101914.91;105746;1256;72607;-75
2024/02/21 00:23:55;;;;;;;8.00;5.20;;;;;;;-0.20;100.00;101914.39;105808;1256;60421;-75
2024/02/21 00:26:22;;;;;;;7.00;5.10;;;;;;;-0.21;100.00;101911.46;105866;1251;60550;-77
2024/02/21 00:32:10;;;;;;;6.20;5.30;;;;;;;-0.19;100.00;101907.70;102630;1290;616551;-76
2024/02/21 00:34:37;;;;;;;8.50;5.00;;;;;;;-0.22;100.00;101911.65;104863;1270;61274;-75
2024/02/21 00:37:03;;;;;;;10.50;5.90;;;;;;;-0.23;100.00;101906.48;104947;1269;60912;-76
2024/02/21 00:39:30;;;;;;;6.80;4.70;;;;;;;-0.23;100.00;101903.39;104878;1264;72039;-75
2024/02/21 00:41:57;;;;;;;6.30;4.90;;;;;;;-0.23;100.00;101897.71;105011;1265;63862;-75
2024/02/21 00:44:24;;;;;;;7.60;5.40;;;;;;;-0.23;100.00;101890.66;104772;1269;256312;-74
2024/02/21 00:46:52;;;;;;;6.00;5.10;;;;;;;-0.27;100.00;101888.06;105179;1264;62010;-74
2024/02/21 00:49:19;;;;;;;9.60;6.30;;;;;;;-0.29;100.00;101891.33;105222;1266;59254;-75
2024/02/21 00:51:47;;;;;;;5.80;4.80;;;;;;;-0.31;100.00;101890.96;105316;1264;72010;-74
2024/02/21 00:54:14;;;;;;;4.50;4.10;;;;;;;-0.32;100.00;101889.93;105215;1263;64110;-75
2024/02/21 00:56:42;;;;;;;7.10;4.80;;;;;;;-0.35;100.00;101891.65;105607;1259;72416;-74
2024/02/21 00:59:09;;;;;;;5.40;4.10;;;;;;;-0.36;100.00;101895.07;105565;1260;61095;-74
2024/02/21 01:01:38;;;;;;;8.60;4.30;;;;;;;-0.37;100.00;101892.65;105492;1260;59568;-75
2024/02/21 01:04:05;;;;;;;9.20;5.80;;;;;;;-0.36;100.00;101889.39;105644;1257;73139;-75
2024/02/21 01:06:31;;;;;;;5.70;5.10;;;;;;;-0.37;100.00;101886.64;105539;1259;63978;-75
2024/02/21 01:08:59;;;;;;;7.00;4.50;;;;;;;-0.37;100.00;101888.36;105614;1259;72684;-74
2024/02/21 01:11:26;;;;;;;8.70;5.10;;;;;;;-0.36;100.00;101891.45;105458;1260;59792;-74
2024/02/21 01:13:53;;;;;;;5.80;4.70;;;;;;;-0.34;100.00;101893.20;105583;1257;60192;-75
2024/02/21 01:16:21;;;;;;;4.80;3.90;;;;;;;-0.35;100.00;101895.25;105481;1255;72918;-76
2024/02/21 01:18:48;;;;;;;9.60;6.30;;;;;;;-0.35;100.00;101896.27;105558;1258;63987;-76
2024/02/21 01:21:15;;;;;;;6.90;4.80;;;;;;;-0.33;100.00;101894.23;105679;1259;72656;-75
2024/02/21 01:23:42;;;;;;;7.40;5.00;;;;;;;-0.31;100.00;101886.51;105568;1257;61170;-76
2024/02/21 01:26:12;;;;;;;5.70;5.10;;;;;;;-0.32;100.00;101883.23;105610;1256;60342;-74
2024/02/21 01:28:40;;;;;;;5.90;4.70;;;;;;;-0.32;100.00;101879.45;105593;1255;73110;-75
2024/02/21 01:31:08;;;;;;;9.50;4.70;;;;;;;-0.32;100.00;101880.99;105598;1258;63678;-75
2024/02/21 01:33:35;;;;;;;5.10;4.50;;;;;;;-0.34;100.00;101877.73;105652;1256;71658;-75
2024/02/21 01:36:02;;;;;;;5.70;4.50;;;;;;;-0.35;100.00;101878.74;105526;1257;60539;-74
2024/02/21 01:38:29;;;;;;;6.50;5.00;;;;;;;-0.34;100.00;101878.92;105625;1257;60049;-76
2024/02/21 01:40:57;;;;;;;6.40;5.10;;;;;;;-0.32;100.00;101880.14;105682;1256;72027;-74
2024/02/21 01:43:25;;;;;;;5.60;5.10;;;;;;;-0.30;100.00;101877.41;105940;1255;63884;-75
2024/02/21 01:45:54;;;;;;;11.00;5.70;;;;;;;-0.27;100.00;101881.20;105855;1252;71216;-76
2024/02/21 01:48:22;;;;;;;6.00;4.90;;;;;;;-0.23;100.00;101883.29;105847;1254;61050;-77
2024/02/21 01:50:51;;;;;;;7.20;5.70;;;;;;;-0.21;100.00;101878.98;105876;1255;59643;-75
2024/02/21 01:53:27;;;;;;;5.30;4.80;;;;;;;-0.21;100.00;101877.10;105891;1251;71514;-78
2024/02/21 01:55:55;;;;;;;7.90;5.30;;;;;;;-0.22;100.00;101877.44;105812;1257;63910;-75
2024/02/21 01:58:23;;;;;;;6.90;5.20;;;;;;;-0.21;100.00;101874.88;105818;1255;72602;-76
2024/02/21 02:00:50;;;;;;;7.40;6.20;;;;;;;-0.22;100.00;101873.83;105792;1257;61281;-76
2024/02/21 02:03:17;;;;;;;6.10;5.30;;;;;;;-0.19;100.00;101870.41;105880;1251;60108;-74
2024/02/21 02:05:50;;;;;;;8.20;4.80;;;;;;;-0.21;100.00;101869.73;105894;1254;70777;-75
2024/02/21 02:08:18;;;;;;;5.90;5.00;;;;;;;-0.21;100.00;101870.05;105819;1256;64026;-73
2024/02/21 02:10:46;;;;;;;6.20;4.70;;;;;;;-0.21;100.00;101866.62;105774;1255;72614;-76
2024/02/21 02:13:13;;;;;;;6.70;5.60;;;;;;;-0.20;100.00;101873.85;105880;1256;61124;-75
2024/02/21 02:15:47;;;;;;;5.50;4.90;;;;;;;-0.19;100.00;101869.89;105887;1257;60307;-75
2024/02/21 02:18:15;;;;;;;6.50;5.30;;;;;;;-0.18;100.00;101874.36;105848;1254;72841;-76
2024/02/21 02:20:42;;;;;;;6.10;4.90;;;;;;;-0.21;100.00;101875.21;105777;1256;63632;-74
2024/02/21 02:23:13;;;;;;;7.50;5.40;;;;;;;-0.23;100.00;101874.67;105730;1254;72461;-77
2024/02/21 02:25:40;;;;;;;6.30;5.50;;;;;;;-0.23;100.00;101881.73;105719;1256;61176;-75
2024/02/21 02:28:08;;;;;;;7.90;5.50;;;;;;;-0.21;100.00;101879.67;105767;1256;60065;-77
2024/02/21 02:30:38;;;;;;;5.80;4.50;;;;;;;-0.21;100.00;101881.40;105743;1252;73275;-74
2024/02/21 02:33:06;;;;;;;6.90;5.20;;;;;;;-0.22;100.00;101882.42;105696;1256;62368;-74
2024/02/21 02:35:35;;;;;;;6.10;5.10;;;;;;;-0.25;100.00;101880.34;105892;1256;72456;-77
2024/02/21 02:38:03;;;;;;;6.70;4.70;;;;;;;-0.26;100.00;101880.52;105978;1254;59752;-75
2024/02/21 02:40:32;;;;;;;7.20;5.20;;;;;;;-0.24;100.00;101881.56;105960;1254;60302;-74
2024/02/21 02:42:58;;;;;;;6.90;4.90;;;;;;;-0.25;100.00;101881.20;105921;1254;72836;-76
2024/02/21 02:45:26;;;;;;;6.30;5.00;;;;;;;-0.28;100.00;101881.19;105905;1251;64024;-74
2024/02/21 02:47:59;;;;;;;7.80;5.30;;;;;;;-0.29;100.00;101881.36;106065;1254;71375;-76
2024/02/21 02:50:27;;;;;;;6.60;5.00;;;;;;;-0.28;100.00;101883.61;106058;1257;61079;-75
2024/02/21 02:52:54;;;;;;;5.40;4.60;;;;;;;-0.27;100.00;101883.09;105885;1251;60401;-75
2024/02/21 02:55:21;;;;;;;6.30;5.30;;;;;;;-0.29;100.00;101883.09;105954;1251;71878;-75
2024/02/21 02:57:48;;;;;;;5.20;4.30;;;;;;;-0.29;100.00;101879.11;106007;1256;63829;-74
2024/02/21 03:00:15;;;;;;;6.20;5.00;;;;;;;-0.30;100.00;101881.52;105919;1251;72516;-76
2024/02/21 03:02:45;;;;;;;9.10;6.00;;;;;;;-0.29;100.00;101881.34;105790;1253;61071;-75
2024/02/21 03:05:13;;;;;;;10.60;6.10;;;;;;;-0.29;100.00;101882.91;105809;1251;60189;-76
2024/02/21 03:07:41;;;;;;;6.00;5.30;;;;;;;-0.28;100.00;101879.98;105927;1251;73039;-76
2024/02/21 03:10:08;;;;;;;8.10;5.60;;;;;;;-0.28;100.00;101882.39;105885;1256;63729;-74
2024/02/21 03:12:39;;;;;;;6.90;6.20;;;;;;;-0.27;100.00;101880.17;105866;1251;72495;-75
2024/02/21 03:15:07;;;;;;;7.50;5.30;;;;;;;-0.25;100.00;101880.85;105863;1255;61112;-75
2024/02/21 03:17:34;;;;;;;5.30;4.70;;;;;;;-0.23;100.00;101876.40;105837;1251;60132;-74
2024/02/21 03:20:04;;;;;;;8.50;5.60;;;;;;;-0.21;100.00;101875.89;105819;1257;71987;-75
2024/02/21 03:22:35;;;;;;;5.70;4.90;;;;;;;-0.21;100.00;101868.52;105885;1256;64084;-77
2024/02/21 03:25:02;;;;;;;6.60;5.10;;;;;;;-0.20;100.00;101874.00;105812;1255;72697;-76
2024/02/21 03:27:30;;;;;;;8.90;5.30;;;;;;;-0.21;100.00;101869.20;105871;1256;60200;-76
2024/02/21 03:29:57;;;;;;;6.70;5.10;;;;;;;-0.22;100.00;101869.89;105807;1251;60308;-74
2024/02/21 03:32:24;;;;;;;7.30;5.50;;;;;;;-0.24;100.00;101869.17;105880;1251;72906;-73
2024/02/21 03:34:52;;;;;;;7.90;6.30;;;;;;;-0.26;100.00;101868.48;105861;1256;63917;-76
2024/02/21 03:37:19;;;;;;;7.30;5.20;;;;;;;-0.31;100.00;101868.97;105897;1254;71173;-76
2024/02/21 03:39:46;;;;;;;6.70;5.10;;;;;;;-0.34;100.00;101866.73;105814;1256;59768;-76
2024/02/21 03:42:14;;;;;;;8.50;5.70;;;;;;;-0.34;100.00;101867.75;105851;1254;60184;-76
2024/02/21 03:44:41;;;;;;;7.20;5.40;;;;;;;-0.35;100.00;101868.27;105918;1251;72992;-74
2024/02/21 03:47:10;;;;;;;7.90;6.00;;;;;;;-0.35;100.00;101866.73;105962;1255;63922;-75
2024/02/21 03:49:37;;;;;;;6.60;5.70;;;;;;;-0.36;100.00;101869.81;105964;1255;72702;-76
2024/02/21 03:52:06;;;;;;;9.20;5.60;;;;;;;-0.34;100.00;101867.06;106768;1251;59666;-74
2024/02/21 03:54:33;;;;;;;7.40;5.60;;;;;;;-0.33;100.00;101870.70;107026;1251;60494;-72
2024/02/21 03:57:00;;;;;;;5.90;5.10;;;;;;;-0.33;100.00;101871.38;106175;1254;73024;-76
2024/02/21 03:59:27;;;;;;;6.30;5.40;;;;;;;-0.33;100.00;101870.18;105821;1256;63895;-75
2024/02/21 04:01:54;;;;;;;6.10;4.80;;;;;;;-0.33;100.00;101869.99;105803;1256;72817;-76
2024/02/21 04:04:21;;;;;;;7.10;6.10;;;;;;;-0.35;100.00;101865.52;105969;1256;59541;-76
2024/02/21 04:06:49;;;;;;;8.30;4.90;;;;;;;-0.35;100.00;101866.38;106043;1251;60414;-76
2024/02/21 04:09:16;;;;;;;7.80;5.10;;;;;;;-0.36;100.00;101863.63;106062;1251;71625;-76
2024/02/21 04:11:43;;;;;;;5.90;4.60;;;;;;;-0.38;100.00;101860.52;105831;1252;63802;-76
2024/02/21 04:14:13;;;;;;;8.10;5.40;;;;;;;-0.39;100.00;101861.89;105938;1255;72653;-75
2024/02/21 04:16:40;;;;;;;7.70;6.10;;;;;;;-0.40;100.00;101859.14;105889;1255;59731;-75
2024/02/21 04:19:08;;;;;;;5.60;5.00;;;;;;;-0.40;100.00;101861.02;105897;1254;60272;-76
2024/02/21 04:21:35;;;;;;;7.20;4.60;;;;;;;-0.39;100.00;101859.65;105876;1252;72812;-75
2024/02/21 04:24:05;;;;;;;6.90;5.00;;;;;;;-0.40;100.00;101857.42;105987;1257;63909;-76
2024/02/21 04:26:32;;;;;;;6.50;4.80;;;;;;;-0.40;100.00;101856.20;105844;1256;72744;-74
2024/02/21 04:28:59;;;;;;;7.20;4.80;;;;;;;-0.40;100.00;101850.89;105921;1256;59666;-77
2024/02/21 04:31:27;;;;;;;8.20;5.50;;;;;;;-0.41;100.00;101855.17;105968;1254;60296;-77
2024/02/21 04:33:54;;;;;;;9.00;6.20;;;;;;;-0.40;100.00;101857.23;105885;1254;72876;-74
2024/02/21 04:36:20;;;;;;;7.80;5.90;;;;;;;-0.40;100.00;101857.25;105857;1256;62547;-76
2024/02/21 04:38:47;;;;;;;6.80;5.40;;;;;;;-0.42;100.00;101856.71;105934;1256;71367;-75
2024/02/21 04:41:14;;;;;;;6.90;5.40;;;;;;;-0.45;100.00;101856.52;105839;1255;60553;-78
2024/02/21 04:43:42;;;;;;;8.30;5.60;;;;;;;-0.47;100.00;101858.08;105589;1259;61036;-76
2024/02/21 04:46:09;;;;;;;7.00;5.20;;;;;;;-0.46;100.00;101863.74;105829;1255;73782;-77
2024/02/21 04:48:37;;;;;;;6.90;5.90;;;;;;;-0.45;100.00;101865.98;106001;1255;63655;-76
2024/02/21 04:51:05;;;;;;;6.50;5.30;;;;;;;-0.45;100.00;101870.61;106121;1253;72621;-75
2024/02/21 04:53:32;;;;;;;8.50;5.80;;;;;;;-0.46;100.00;101869.07;105899;1255;60408;-74
2024/02/21 04:55:59;;;;;;;8.10;5.60;;;;;;;-0.46;100.00;101877.66;105906;1254;60442;-77
2024/02/21 04:58:27;;;;;;;6.50;5.00;;;;;;;-0.45;100.00;101879.38;105984;1252;72545;-77
2024/02/21 05:00:55;;;;;;;6.90;5.10;;;;;;;-0.46;100.00;101882.47;106118;1256;63649;-77
2024/02/21 05:03:22;;;;;;;7.00;5.90;;;;;;;-0.48;100.00;101886.06;105920;1255;71314;-76
2024/02/21 05:05:50;;;;;;;7.90;5.30;;;;;;;-0.50;100.00;101889.14;105899;1256;60540;-76
2024/02/21 05:08:16;;;;;;;7.20;5.70;;;;;;;-0.50;100.00;101888.28;105886;1256;60447;-76
2024/02/21 05:10:44;;;;;;;9.80;6.00;;;;;;;-0.49;100.00;101890.52;105906;1256;73837;-76
2024/02/21 05:13:11;;;;;;;10.00;5.50;;;;;;;-0.47;100.00;101893.11;106002;1256;63037;-76
2024/02/21 05:15:38;;;;;;;8.00;5.90;;;;;;;-0.44;100.00;101891.58;105871;1255;72633;-76
2024/02/21 05:18:06;;;;;;;6.80;5.40;;;;;;;-0.42;100.00;101895.38;105965;1256;60428;-76
2024/02/21 05:20:34;;;;;;;7.30;5.20;;;;;;;-0.45;100.00;101896.20;105888;1256;60396;-76
2024/02/21 05:23:01;;;;;;;7.20;5.40;;;;;;;-0.45;100.00;101899.13;106085;1254;72477;-77
2024/02/21 05:25:28;;;;;;;5.90;5.10;;;;;;;-0.45;100.00;101895.86;105853;1255;63632;-76
2024/02/21 05:27:55;;;;;;;8.20;5.10;;;;;;;-0.44;100.00;101902.05;105902;1251;72634;-76
2024/02/21 05:30:23;;;;;;;9.90;6.10;;;;;;;-0.42;100.00;101904.82;105907;1257;60536;-75
2024/02/21 05:32:52;;;;;;;6.30;5.50;;;;;;;-0.40;100.00;101908.27;105853;1256;60415;-77
2024/02/21 05:35:26;;;;;;;9.90;6.00;;;;;;;-0.38;100.00;101910.16;105936;1257;73657;-77
2024/02/21 05:37:53;;;;;;;7.40;5.20;;;;;;;-0.36;100.00;101914.82;105906;1251;63993;-77
2024/02/21 05:40:19;;;;;;;7.80;5.60;;;;;;;-0.33;100.00;101915.70;105839;1251;70661;-77
2024/02/21 05:42:46;;;;;;;6.40;5.10;;;;;;;-0.32;100.00;101917.92;105778;1256;60530;-76
2024/02/21 05:45:15;;;;;;;10.90;7.50;;;;;;;-0.31;100.00;101915.52;105895;1256;60472;-75
2024/02/21 05:47:43;;;;;;;11.00;6.90;;;;;;;-0.30;100.00;101919.32;105915;1256;73747;-76
2024/02/21 05:50:10;;;;;;;13.30;5.90;;;;;;;-0.30;100.00;101918.12;106021;1257;64391;-76
2024/02/21 05:52:37;;;;;;;9.50;6.80;;;;;;;-0.31;100.00;101914.16;106061;1255;72636;-76
2024/02/21 05:55:06;;;;;;;11.10;6.90;;;;;;;-0.32;100.00;101907.27;106018;1254;60556;-76
2024/02/21 05:57:33;;;;;;;10.20;7.40;;;;;;;-0.31;100.00;101912.28;106917;1251;60491;-77
2024/02/21 06:00:00;;;;;;;9.90;6.30;;;;;;;-0.31;100.00;101909.86;108606;1251;73320;-74
2024/02/21 06:02:27;;;;;;;7.50;5.90;;;;;;;-0.31;100.00;101911.07;108193;1251;62554;-74
2024/02/21 06:04:54;;;;;;;8.80;6.10;;;;;;;-0.30;100.00;101901.63;108658;1251;71412;-75
2024/02/21 06:07:22;;;;;;;14.20;6.40;;;;;;;-0.29;100.00;101904.56;109352;1251;59286;-76
2024/02/21 06:09:49;;;;;;;8.90;6.30;;;;;;;-0.30;100.00;101896.48;109417;1251;59154;-76
2024/02/21 06:12:18;;;;;;;8.10;5.50;;;;;;;-0.29;100.00;101890.98;109272;1251;72824;-76
2024/02/21 06:14:45;;;;;;;15.40;5.60;;;;;;;-0.28;100.00;101889.26;106808;1256;62629;-75
2024/02/21 06:17:12;;;;;;;14.70;6.10;;;;;;;-0.26;100.00;101888.08;106060;1257;70166;-76
2024/02/21 06:19:42;;;;;;;7.00;5.20;;;;;;;-0.24;100.00;101894.10;106062;1257;60431;-76
2024/02/21 06:22:09;;;;;;;8.80;5.60;;;;;;;-0.22;100.00;101889.30;106129;1251;60607;-76
2024/02/21 06:24:36;;;;;;;8.80;6.50;;;;;;;-0.21;100.00;101891.70;106007;1256;72875;-76
2024/02/21 06:27:05;;;;;;;9.60;6.80;;;;;;;-0.19;100.00;101892.23;106091;1256;63858;-76
2024/02/21 06:29:35;;;;;;;8.80;5.60;;;;;;;-0.19;100.00;101888.11;105917;1254;71393;-77
2024/02/21 06:32:03;;;;;;;10.10;6.00;;;;;;;-0.18;100.00;101886.73;105864;1256;60462;-76
2024/02/21 06:34:31;;;;;;;11.30;6.80;;;;;;;-0.15;100.00;101885.55;106009;1251;60457;-77
2024/02/21 06:37:00;;;;;;;8.30;5.40;;;;;;;-0.11;100.00;101891.08;105921;1252;72524;-78
2024/02/21 06:39:29;;;;;;;6.00;5.30;;;;;;;-0.09;100.00;101887.30;105883;1257;63825;-77
2024/02/21 06:41:56;;;;;;;8.10;5.10;;;;;;;-0.05;100.00;101889.38;105857;1257;72808;-76
2024/02/21 06:44:31;;;;;;;8.50;5.30;;;;;;;-0.02;100.00;101887.83;105912;1256;60923;-75
2024/02/21 06:46:59;;;;;;;6.80;5.50;;;;;;;0.01;100.00;101888.38;105961;1251;61123;-75
2024/02/21 06:49:26;;;;;;;9.80;7.10;;;;;;;0.03;100.00;101892.50;105944;1256;72642;-75
2024/02/21 06:51:53;;;;;;;10.00;7.00;;;;;;;0.05;100.00;101895.95;105961;1256;63942;-77
2024/02/21 06:54:20;;;;;;;9.90;6.60;;;;;;;0.07;100.00;101896.48;105956;1256;72537;-76
2024/02/21 06:56:48;;;;;;;10.00;7.30;;;;;;;0.11;100.00;101889.60;105954;1257;60528;-76
2024/02/21 06:59:15;;;;;;;9.50;6.20;;;;;;;0.14;100.00;101889.62;105968;1257;60498;-77
2024/02/21 07:01:48;;;;;;;13.00;6.90;;;;;;;0.18;100.00;101887.23;105958;1257;72944;-78
2024/02/21 07:04:15;;;;;;;9.90;6.20;;;;;;;0.23;100.00;101880.36;105929;1251;63035;-76
2024/02/21 07:06:42;;;;;;;8.80;7.10;;;;;;;0.25;100.00;101874.52;105937;1257;72695;-77
2024/02/21 07:09:09;;;;;;;12.60;6.50;;;;;;;0.31;100.00;101868.52;106306;1251;60456;-76
2024/02/21 07:11:36;;;;;;;12.50;6.50;;;;;;;0.38;100.00;101865.10;105977;1256;60437;-76
2024/02/21 07:14:03;;;;;;;11.50;5.90;;;;;;;0.45;100.00;101865.80;105882;1257;72727;-75
2024/02/21 07:16:32;;;;;;;8.20;6.00;;;;;;;0.49;100.00;101865.11;105968;1255;63976;-77
2024/02/21 07:19:00;;;;;;;9.60;7.00;;;;;;;0.50;100.00;101869.59;105949;1256;73714;-76
2024/02/21 07:21:27;;;;;;;9.60;6.60;;;;;;;0.53;100.00;101864.44;105880;1256;60645;-75
2024/02/21 07:23:54;;;;;;;13.20;6.30;;;;;;;0.56;100.00;101867.37;105958;1254;60411;-76
2024/02/21 07:26:21;;;;;;;15.40;9.80;;;;;;;0.60;100.00;101863.41;105975;1252;73789;-77
2024/02/21 07:28:48;;;;;;;12.40;7.80;;;;;;;0.66;100.00;101864.12;105862;1257;63674;-74
2024/02/21 07:31:16;;;;;;;11.60;7.30;;;;;;;0.76;100.00;101862.05;105886;1255;70543;-77
2024/02/21 07:33:47;;;;;;;11.10;7.40;;;;;;;0.85;100.00;101856.73;105874;1256;60591;-76
2024/02/21 07:36:15;;;;;;;12.20;7.50;;;;;;;0.95;100.00;101849.33;105868;1256;60447;-76
2024/02/21 07:38:42;;;;;;;13.80;8.10;;;;;;;1.06;100.00;101843.27;105909;1257;72228;-77
2024/02/21 07:41:10;;;;;;;11.40;7.10;;;;;;;1.15;100.00;101842.59;105873;1252;62899;-76
2024/02/21 07:43:37;;;;;;;13.80;7.50;;;;;;;1.27;100.00;101846.02;105966;1255;73707;-77
2024/02/21 07:46:05;;;;;;;9.00;6.90;;;;;;;1.43;100.00;101842.36;105933;1257;60559;-76
2024/02/21 07:48:32;;;;;;;11.80;8.40;;;;;;;1.61;100.00;101846.10;106162;1251;60443;-76
2024/02/21 07:51:01;;;;;;;12.60;7.10;;;;;;;1.79;100.00;101843.45;106185;1251;71890;-77
2024/02/21 07:53:28;;;;;;;14.90;8.70;;;;;;;1.96;100.00;101846.49;106044;1257;63303;-74
2024/02/21 07:55:55;;;;;;;11.80;7.60;;;;;;;2.05;100.00;101848.35;106334;1254;72259;-76
2024/02/21 07:58:22;;;;;;;8.40;6.60;;;;;;;2.11;100.00;101841.08;106705;1256;60489;-76
2024/02/21 08:00:49;;;;;;;7.70;6.50;;;;;;;2.19;99.87;101843.62;107154;1251;60463;-76
2024/02/21 08:03:17;;;;;;;11.60;7.50;;;;;;;2.29;100.00;101848.73;108951;1252;73080;-76
2024/02/21 08:05:45;;;;;;;15.20;7.40;;;;;;;2.42;100.00;101845.20;106907;1256;61852;-76
2024/02/21 08:08:18;;;;;;;12.40;8.70;;;;;;;2.54;97.68;101841.84;106011;1256;71678;-77
2024/02/21 08:10:44;;;;;;;10.80;7.20;;;;;;;2.69;96.41;101841.21;105881;1257;60549;-77
2024/02/21 08:13:11;;;;;;;8.90;6.10;;;;;;;2.86;94.23;101831.92;105973;1257;60442;-76
2024/02/21 08:15:39;;;;;;;10.10;7.20;;;;;;;3.00;87.47;101831.63;105891;1255;74810;-77
2024/02/21 08:18:06;;;;;;;8.70;7.00;;;;;;;3.09;85.37;101832.24;105907;1257;63289;-77
2024/02/21 08:20:33;;;;;;;13.20;6.90;;;;;;;3.18;82.26;101831.30;105878;1255;72717;-76
2024/02/21 08:23:02;;;;;;;11.80;6.90;;;;;;;3.19;77.58;101828.17;105897;1251;60652;-76
2024/02/21 08:25:29;;;;;;;9.60;6.00;;;;;;;3.11;78.31;101832.75;105861;1257;60524;-75
2024/02/21 08:27:58;;;;;;;12.70;6.30;;;;;;;3.01;80.39;101830.06;106010;1252;72305;-76
2024/02/21 08:30:28;;;;;;;10.90;6.60;;;;;;;2.98;82.30;101837.17;106041;1257;64360;-76
2024/02/21 08:32:54;;;;;;;8.50;5.20;;;;;;;3.03;84.22;101842.32;105815;1254;71814;-77
2024/02/21 08:35:23;;;;;;;8.50;6.40;;;;;;;3.09;84.45;101841.75;105949;1256;60553;-76
2024/02/21 08:37:49;;;;;;;8.00;5.90;;;;;;;3.10;84.71;101844.66;105879;1252;60652;-77
2024/02/21 08:40:21;;;;;;;11.00;6.30;;;;;;;3.12;84.87;101850.36;105837;1257;74199;-76
2024/02/21 08:42:49;;;;;;;28.30;14.60;;;;;;;3.20;85.66;101850.98;105855;1256;63788;-76
2024/02/21 08:45:16;;;;;;;19.00;10.90;;;;;;;3.26;82.19;101853.69;105909;1257;71690;-77
2024/02/21 08:47:44;;;;;;;11.00;7.00;;;;;;;3.23;82.04;101853.70;105922;1254;60431;-76
2024/02/21 08:50:11;;;;;;;7.30;5.60;;;;;;;3.15;83.41;101849.30;105865;1257;60619;-76
2024/02/21 08:52:54;;;;;;;8.80;6.20;;;;;;;3.08;82.22;101846.42;105833;1252;74708;-76
2024/02/21 08:55:21;;;;;;;13.70;7.80;;;;;;;2.92;80.69;101839.81;105892;1256;63431;-76
2024/02/21 08:57:49;;;;;;;12.40;7.10;;;;;;;2.77;83.68;101841.31;105893;1256;72018;-76
2024/02/21 09:00:17;;;;;;;12.30;7.00;;;;;;;2.63;87.18;101844.02;106043;1256;60543;-76
2024/02/21 09:02:44;;;;;;;12.80;8.00;;;;;;;2.57;89.70;101839.41;105919;1251;60526;-77
2024/02/21 09:05:11;;;;;;;6.90;5.80;;;;;;;2.53;89.98;101843.74;105856;1251;72553;-76
2024/02/21 09:07:38;;;;;;;14.30;7.60;;;;;;;2.51;90.57;101837.89;105938;1261;65372;-78
2024/02/21 09:10:07;;;;;;;11.20;7.90;;;;;;;2.48;92.99;101832.39;105892;1257;74186;-75
2024/02/21 09:12:34;;;;;;;11.10;7.00;;;;;;;2.45;95.90;101833.43;105857;1265;60553;-77
2024/02/21 09:15:01;;;;;;;11.10;7.80;;;;;;;2.43;97.79;101836.40;105880;1251;60498;-76
2024/02/21 09:17:29;;;;;;;7.90;6.50;;;;;;;2.44;98.72;101840.88;105908;1257;74810;-75
2024/02/21 09:19:58;;;;;;;10.50;6.10;;;;;;;2.43;99.40;101842.27;105848;1256;62887;-76
2024/02/21 09:22:26;;;;;;;9.40;6.60;;;;;;;2.40;100.00;101839.86;105929;1257;73820;-75
2024/02/21 09:24:54;;;;;;;9.80;6.50;;;;;;;2.39;100.00;101839.02;105914;1256;60561;-75
2024/02/21 09:27:22;;;;;;;9.60;6.70;;;;;;;2.38;100.00;101840.39;105930;1257;60648;-74
2024/02/21 09:29:49;;;;;;;17.60;7.40;;;;;;;2.38;100.00;101836.59;106098;1255;73331;-76
2024/02/21 09:32:19;;;;;;;8.60;6.40;;;;;;;2.41;100.00;101838.30;106042;1257;63834;-76
2024/02/21 09:34:46;;;;;;;13.40;8.60;;;;;;;2.47;100.00;101837.75;106209;1254;70897;-75
2024/02/21 09:37:13;;;;;;;16.40;8.40;;;;;;;2.54;100.00;101830.96;107476;1251;60472;-74
2024/02/21 09:39:40;;;;;;;8.20;6.50;;;;;;;2.58;100.00;101830.77;107409;1251;61343;-74
2024/02/21 09:42:07;;;;;;;8.50;6.40;;;;;;;2.58;100.00;101826.80;107445;1255;75277;-75
2024/02/21 09:44:38;;;;;;;11.00;6.60;;;;;;;2.58;100.00;101826.63;107954;1256;63069;-76
2024/02/21 09:47:31;;;;;;;10.30;7.60;;;;;;;2.55;100.00;101829.06;109132;1251;72852;-74
2024/02/21 09:50:01;;;;;;;9.20;7.30;;;;;;;2.49;100.00;101833.25;109365;1251;59043;-75
2024/02/21 09:52:28;;;;;;;9.50;7.20;;;;;;;2.46;100.00;101838.62;109420;1251;59538;-76
2024/02/21 09:54:56;;;;;;;8.60;6.50;;;;;;;2.44;100.00;101845.02;107390;1254;72310;-77
2024/02/21 09:57:24;;;;;;;9.90;7.00;;;;;;;2.41;100.00;101846.06;106542;1251;61885;-74
2024/02/21 09:59:51;;;;;;;12.10;7.50;;;;;;;2.38;100.00;101843.67;106060;1251;72866;-77
2024/02/21 10:02:19;;;;;;;9.30;7.20;;;;;;;2.39;100.00;101840.38;106193;1257;60500;-78
2024/02/21 10:04:46;;;;;;;10.30;6.60;;;;;;;2.41;100.00;101836.06;105974;1251;60546;-76
2024/02/21 10:07:13;;;;;;;9.20;7.20;;;;;;;2.40;100.00;101829.84;105890;1256;72732;-78
2024/02/21 10:09:42;;;;;;;10.50;8.40;;;;;;;2.34;100.00;101829.90;105838;1258;64374;-74
2024/02/21 10:12:10;;;;;;;12.40;8.00;;;;;;;2.31;100.00;101834.91;105914;1257;73137;-75
2024/02/21 10:14:38;;;;;;;10.00;8.10;;;;;;;2.30;100.00;101832.67;105881;1264;60527;-77
2024/02/21 10:17:09;;;;;;;12.50;8.40;;;;;;;2.33;100.00;101832.84;105892;1251;61154;-77
2024/02/21 10:19:36;;;;;;;11.30;8.40;;;;;;;2.40;100.00;101832.79;105876;1256;72846;-78
2024/02/21 10:22:05;;;;;;;9.90;7.40;;;;;;;2.49;100.00;101830.83;105807;1254;63975;-77
2024/02/21 10:24:32;;;;;;;10.60;8.10;;;;;;;2.56;100.00;101828.36;105761;1257;72999;-77
2024/02/21 10:27:03;;;;;;;10.70;7.20;;;;;;;2.57;100.00;101826.64;105914;1255;60466;-75
2024/02/21 10:29:31;;;;;;;14.20;7.90;;;;;;;2.58;100.00;101828.00;105920;1256;61266;-77
2024/02/21 10:32:08;;;;;;;13.80;8.60;;;;;;;2.58;100.00;101826.98;105862;1257;74872;-77
2024/02/21 10:34:35;;;;;;;12.90;8.80;;;;;;;2.54;100.00;101828.73;105898;1257;64524;-75
2024/02/21 10:37:04;;;;;;;12.10;8.20;;;;;;;2.53;100.00;101828.39;105970;1252;70633;-75
2024/02/21 10:39:32;;;;;;;11.20;7.70;;;;;;;2.50;100.00;101829.10;105881;1256;60415;-76
2024/02/21 10:42:04;;;;;;;11.40;8.90;;;;;;;2.47;100.00;101829.64;106467;1251;60440;-75
2024/02/21 10:44:33;;;;;;;9.90;7.50;;;;;;;2.46;100.00;101827.21;105841;1257;72888;-77
2024/02/21 10:47:00;;;;;;;10.20;7.60;;;;;;;2.46;100.00;101822.91;105894;1257;62630;-77
2024/02/21 10:49:28;;;;;;;10.10;7.30;;;;;;;2.44;100.00;101824.48;106175;1254;72680;-77
2024/02/21 10:52:00;;;;;;;14.50;9.00;;;;;;;2.44;100.00;101819.13;106137;1256;60572;-77
2024/02/21 10:54:34;;;;;;;10.80;7.30;;;;;;;2.48;100.00;101822.04;105885;1256;60527;-77
2024/02/21 10:57:01;;;;;;;17.10;9.30;;;;;;;2.51;100.00;101816.67;105901;1251;74280;-75
2024/02/21 10:59:30;;;;;;;11.40;8.50;;;;;;;2.53;100.00;101815.27;105770;1256;64793;-76
2024/02/21 11:01:57;;;;;;;17.40;10.60;;;;;;;2.55;100.00;101816.64;105739;1251;73635;-76
2024/02/21 11:04:26;;;;;;;11.60;9.00;;;;;;;2.57;100.00;101817.13;105915;1257;60502;-77
2024/02/21 11:06:54;;;;;;;11.00;8.20;;;;;;;2.57;100.00;101816.62;105764;1251;60508;-76
2024/02/21 11:09:30;;;;;;;9.00;7.60;;;;;;;2.54;100.00;101818.89;105914;1257;74089;-75
2024/02/21 11:12:01;;;;;;;12.90;7.60;;;;;;;2.47;100.00;101816.00;105888;1257;64310;-75
2024/02/21 11:14:32;;;;;;;12.20;7.20;;;;;;;2.42;100.00;101812.75;105974;1251;72711;-74
2024/02/21 11:17:00;;;;;;;13.50;8.30;;;;;;;2.37;100.00;101809.70;105886;1256;61236;-74
2024/02/21 11:19:28;;;;;;;14.00;7.90;;;;;;;2.31;100.00;101810.41;105862;1257;60485;-75